createdAt,value
2019-03-10T00:00:54.209Z,5.35
2019-03-10T00:01:54.195Z,5.33
2019-03-10T00:02:54.184Z,5.33
2019-03-10T00:03:54.188Z,5.39
2019-03-10T00:04:54.172Z,5.36
2019-03-10T00:05:54.171Z,5.43
2019-03-10T00:06:54.188Z,5.33
2019-03-10T00:07:54.126Z,5.33
2019-03-10T00:08:54.129Z,5.30
2019-03-10T00:09:54.100Z,5.38
2019-03-10T00:10:54.131Z,5.46
2019-03-10T00:11:54.092Z,5.32
2019-03-10T00:12:54.075Z,5.32
2019-03-10T00:13:54.064Z,5.30
2019-03-10T00:14:54.069Z,5.35
2019-03-10T00:15:54.041Z,5.32
2019-03-10T00:16:54.030Z,5.35
2019-03-10T00:17:54.043Z,5.28
2019-03-10T00:18:54.014Z,5.33
2019-03-10T00:19:54.015Z,5.23
2019-03-10T00:20:53.995Z,5.26
2019-03-10T00:21:53.988Z,5.35
2019-03-10T00:22:53.979Z,5.28
2019-03-10T00:23:53.940Z,5.20
2019-03-10T00:24:53.950Z,5.18
2019-03-10T00:25:53.927Z,5.20
2019-03-10T00:26:53.911Z,5.21
2019-03-10T00:27:53.910Z,5.18
2019-03-10T00:28:53.895Z,5.18
2019-03-10T00:29:53.892Z,5.14
2019-03-10T00:30:53.881Z,5.20
2019-03-10T00:31:53.859Z,5.21
2019-03-10T00:32:53.872Z,5.23
2019-03-10T00:33:53.863Z,5.21
2019-03-10T00:34:53.824Z,5.21
2019-03-10T00:35:53.816Z,5.20
2019-03-10T00:36:53.816Z,5.28
2019-03-10T00:37:53.796Z,5.21
2019-03-10T00:38:53.787Z,5.29
2019-03-10T00:39:53.819Z,5.21
2019-03-10T00:40:53.753Z,5.36
2019-03-10T00:41:53.758Z,5.32
2019-03-10T00:42:53.738Z,5.35
2019-03-10T00:43:53.722Z,5.29
2019-03-10T00:44:53.723Z,5.25
2019-03-10T00:45:53.708Z,5.17
2019-03-10T00:46:53.706Z,5.21
2019-03-10T00:47:53.679Z,5.30
2019-03-10T00:48:53.683Z,5.30
2019-03-10T00:49:53.673Z,5.23
2019-03-10T00:50:53.666Z,5.23
2019-03-10T00:51:53.636Z,5.25
2019-03-10T00:52:53.636Z,5.17
2019-03-10T00:53:53.618Z,5.18
2019-03-10T00:54:53.607Z,5.20
2019-03-10T00:55:53.605Z,5.25
2019-03-10T00:56:53.574Z,5.30
2019-03-10T00:57:53.574Z,5.26
2019-03-10T00:58:53.578Z,5.21
2019-03-10T00:59:53.546Z,5.23
2019-03-10T01:00:53.565Z,5.21
2019-03-10T01:01:53.520Z,5.28
2019-03-10T01:02:53.517Z,5.12
2019-03-10T01:03:53.521Z,5.17
2019-03-10T01:04:53.496Z,5.20
2019-03-10T01:05:53.483Z,5.21
2019-03-10T01:06:53.476Z,5.18
2019-03-10T01:07:53.449Z,5.11
2019-03-10T01:08:53.444Z,5.15
2019-03-10T01:09:53.451Z,5.15
2019-03-10T01:10:53.444Z,5.20
2019-03-10T01:11:53.418Z,5.08
2019-03-10T01:12:53.418Z,5.14
2019-03-10T01:13:53.415Z,5.07
2019-03-10T01:14:53.381Z,5.07
2019-03-10T01:15:53.380Z,5.04
2019-03-10T01:16:53.369Z,5.08
2019-03-10T01:17:53.359Z,5.07
2019-03-10T01:18:53.329Z,5.05
2019-03-10T01:19:53.379Z,5.08
2019-03-10T01:20:53.333Z,5.14
2019-03-10T01:21:53.316Z,5.11
2019-03-10T01:22:53.305Z,5.07
2019-03-10T01:23:53.313Z,5.04
2019-03-10T01:24:53.275Z,5.00
2019-03-10T01:25:53.355Z,5.04
2019-03-10T01:26:53.246Z,5.11
2019-03-10T01:27:53.252Z,5.05
2019-03-10T01:28:53.252Z,4.97
2019-03-10T01:29:53.230Z,5.04
2019-03-10T01:30:53.196Z,5.05
2019-03-10T01:31:53.206Z,4.97
2019-03-10T01:32:53.186Z,5.07
2019-03-10T01:33:53.163Z,5.05
2019-03-10T01:34:53.158Z,5.02
2019-03-10T01:35:53.160Z,5.05
2019-03-10T01:36:53.138Z,4.97
2019-03-10T01:37:53.119Z,5.08
2019-03-10T01:38:53.136Z,4.96
2019-03-10T01:39:53.096Z,5.07
2019-03-10T01:40:53.100Z,4.99
2019-03-10T01:41:53.077Z,5.05
2019-03-10T01:42:53.068Z,5.04
2019-03-10T01:43:53.056Z,5.00
2019-03-10T01:44:53.042Z,5.08
2019-03-10T01:45:53.060Z,5.12
2019-03-10T01:46:53.027Z,5.10
2019-03-10T01:47:53.063Z,5.18
2019-03-10T01:48:52.999Z,5.11
2019-03-10T01:49:53.006Z,5.15
2019-03-10T01:50:52.975Z,5.21
2019-03-10T01:51:52.984Z,5.11
2019-03-10T01:52:52.982Z,5.20
2019-03-10T01:53:52.933Z,5.11
2019-03-10T01:54:52.929Z,5.10
2019-03-10T01:55:52.951Z,5.07
2019-03-10T01:56:52.907Z,5.14
2019-03-10T01:57:52.929Z,5.18
2019-03-10T01:58:52.917Z,5.23
2019-03-10T01:59:52.872Z,5.18
2019-03-10T02:00:52.875Z,5.26
2019-03-10T02:01:52.847Z,5.30
2019-03-10T02:02:52.855Z,5.33
2019-03-10T02:03:52.826Z,5.25
2019-03-10T02:04:52.822Z,5.18
2019-03-10T02:05:52.810Z,5.20
2019-03-10T02:06:52.799Z,5.18
2019-03-10T02:07:52.791Z,5.20
2019-03-10T02:08:52.777Z,5.26
2019-03-10T02:09:52.760Z,5.23
2019-03-10T02:10:52.762Z,5.17
2019-03-10T02:11:52.800Z,5.10
2019-03-10T02:12:52.728Z,5.23
2019-03-10T02:13:52.720Z,5.25
2019-03-10T02:14:52.704Z,5.15
2019-03-10T02:15:52.699Z,5.25
2019-03-10T02:16:52.696Z,5.21
2019-03-10T02:17:52.674Z,5.20
2019-03-10T02:18:52.702Z,5.21
2019-03-10T02:19:52.802Z,5.25
2019-03-10T02:20:52.684Z,5.18
2019-03-10T02:21:52.628Z,5.18
2019-03-10T02:22:52.616Z,5.11
2019-03-10T02:23:52.604Z,5.21
2019-03-10T02:24:52.611Z,5.21
2019-03-10T02:25:52.598Z,5.17
2019-03-10T02:26:52.572Z,5.12
2019-03-10T02:27:52.570Z,5.17
2019-03-10T02:28:52.562Z,5.12
2019-03-10T02:29:52.543Z,5.15
2019-03-10T02:30:52.537Z,5.11
2019-03-10T02:31:52.538Z,5.15
2019-03-10T02:32:52.504Z,5.25
2019-03-10T02:33:52.491Z,5.14
2019-03-10T02:34:52.483Z,5.23
2019-03-10T02:35:52.476Z,5.21
2019-03-10T02:36:52.463Z,5.10
2019-03-10T02:37:52.455Z,5.18
2019-03-10T02:38:52.435Z,5.18
2019-03-10T02:39:52.427Z,5.18
2019-03-10T02:40:52.410Z,5.18
2019-03-10T02:41:52.439Z,5.20
2019-03-10T02:42:52.386Z,5.14
2019-03-10T02:43:52.378Z,5.18
2019-03-10T02:44:52.373Z,5.25
2019-03-10T02:45:52.364Z,5.17
2019-03-10T02:46:52.342Z,5.18
2019-03-10T02:47:52.378Z,5.18
2019-03-10T02:48:52.323Z,5.17
2019-03-10T02:49:52.364Z,5.14
2019-03-10T02:50:52.324Z,5.15
2019-03-10T02:51:52.301Z,5.11
2019-03-10T02:52:52.287Z,5.12
2019-03-10T02:53:52.284Z,5.11
2019-03-10T02:54:52.256Z,5.11
2019-03-10T02:55:52.250Z,5.11
2019-03-10T02:56:52.234Z,5.07
2019-03-10T02:57:52.227Z,4.99
2019-03-10T02:58:52.230Z,5.08
2019-03-10T02:59:52.205Z,5.05
2019-03-10T03:00:52.264Z,4.97
2019-03-10T03:01:52.181Z,5.08
2019-03-10T03:02:52.180Z,5.10
2019-03-10T03:03:52.153Z,5.17
2019-03-10T03:04:52.144Z,5.07
2019-03-10T03:05:52.169Z,5.07
2019-03-10T03:06:52.205Z,5.14
2019-03-10T03:07:52.111Z,5.14
2019-03-10T03:08:52.101Z,5.11
2019-03-10T03:09:52.105Z,5.05
2019-03-10T03:10:52.114Z,5.07
2019-03-10T03:11:52.060Z,5.08
2019-03-10T03:12:52.048Z,5.05
2019-03-10T03:13:52.050Z,5.02
2019-03-10T03:14:52.032Z,5.04
2019-03-10T03:15:52.045Z,4.89
2019-03-10T03:16:52.953Z,4.97
2019-03-10T03:17:51.994Z,4.92
2019-03-10T03:18:51.994Z,4.92
2019-03-10T03:19:51.983Z,4.96
2019-03-10T03:20:51.974Z,4.99
2019-03-10T03:21:51.964Z,4.90
2019-03-10T03:22:52.024Z,4.96
2019-03-10T03:23:51.937Z,5.07
2019-03-10T03:24:51.927Z,5.02
2019-03-10T03:25:51.908Z,4.90
2019-03-10T03:26:51.901Z,4.99
2019-03-10T03:27:51.915Z,5.07
2019-03-10T03:28:51.884Z,4.99
2019-03-10T03:29:51.860Z,5.00
2019-03-10T03:30:51.867Z,5.07
2019-03-10T03:31:51.844Z,5.04
2019-03-10T03:32:51.841Z,4.93
2019-03-10T03:33:51.818Z,5.05
2019-03-10T03:34:51.810Z,4.96
2019-03-10T03:35:51.797Z,5.08
2019-03-10T03:36:51.788Z,5.08
2019-03-10T03:37:51.784Z,5.14
2019-03-10T03:38:51.877Z,5.15
2019-03-10T03:39:51.782Z,5.10
2019-03-10T03:40:51.735Z,5.20
2019-03-10T03:41:51.743Z,5.20
2019-03-10T03:42:51.737Z,5.21
2019-03-10T03:43:51.710Z,5.15
2019-03-10T03:44:51.716Z,5.18
2019-03-10T03:45:51.728Z,5.07
2019-03-10T03:46:51.676Z,5.23
2019-03-10T03:47:51.676Z,5.14
2019-03-10T03:48:51.664Z,5.18
2019-03-10T03:49:51.669Z,5.11
2019-03-10T03:50:51.637Z,5.20
2019-03-10T03:51:51.659Z,5.20
2019-03-10T03:52:51.611Z,5.12
2019-03-10T03:53:51.593Z,5.18
2019-03-10T03:54:51.591Z,5.17
2019-03-10T03:55:51.602Z,5.08
2019-03-10T03:56:51.569Z,5.12
2019-03-10T03:57:51.551Z,5.12
2019-03-10T03:58:51.549Z,5.21
2019-03-10T03:59:51.530Z,5.20
2019-03-10T04:00:51.532Z,5.18
2019-03-10T04:01:51.505Z,5.12
2019-03-10T04:02:51.512Z,5.21
2019-03-10T04:03:51.494Z,5.14
2019-03-10T04:04:51.481Z,5.14
2019-03-10T04:05:51.467Z,5.18
2019-03-10T04:06:51.466Z,5.15
2019-03-10T04:07:51.507Z,5.17
2019-03-10T04:08:51.445Z,5.17
2019-03-10T04:09:51.420Z,5.17
2019-03-10T04:10:51.412Z,5.21
2019-03-10T04:11:51.411Z,5.14
2019-03-10T04:12:51.394Z,5.18
2019-03-10T04:13:51.385Z,5.17
2019-03-10T04:14:51.361Z,5.23
2019-03-10T04:15:51.362Z,5.17
2019-03-10T04:16:51.346Z,5.21
2019-03-10T04:17:51.344Z,5.10
2019-03-10T04:18:51.339Z,5.15
2019-03-10T04:19:51.426Z,5.21
2019-03-10T04:20:51.302Z,5.20
2019-03-10T04:21:51.286Z,5.21
2019-03-10T04:22:51.292Z,5.23
2019-03-10T04:23:51.295Z,5.26
2019-03-10T04:24:51.257Z,5.23
2019-03-10T04:25:51.253Z,5.21
2019-03-10T04:26:51.234Z,5.18
2019-03-10T04:27:51.228Z,5.25
2019-03-10T04:28:51.230Z,5.32
2019-03-10T04:29:51.210Z,5.21
2019-03-10T04:30:51.190Z,5.28
2019-03-10T04:31:51.184Z,5.17
2019-03-10T04:32:51.180Z,5.25
2019-03-10T04:33:51.153Z,5.17
2019-03-10T04:34:51.215Z,5.17
2019-03-10T04:35:51.140Z,5.14
2019-03-10T04:36:51.119Z,5.14
2019-03-10T04:37:51.115Z,5.26
2019-03-10T04:38:51.125Z,5.25
2019-03-10T04:39:51.093Z,5.18
2019-03-10T04:40:51.093Z,5.29
2019-03-10T04:41:51.070Z,5.30
2019-03-10T04:42:51.059Z,5.32
2019-03-10T04:43:51.050Z,5.43
2019-03-10T04:44:51.039Z,5.38
2019-03-10T04:45:51.024Z,5.33
2019-03-10T04:46:51.010Z,5.39
2019-03-10T04:47:51.021Z,5.38
2019-03-10T04:48:50.988Z,5.38
2019-03-10T04:49:50.978Z,5.41
2019-03-10T04:50:50.961Z,5.47
2019-03-10T04:51:50.977Z,5.47
2019-03-10T04:52:50.938Z,5.46
2019-03-10T04:53:50.927Z,5.43
2019-03-10T04:54:50.925Z,5.41
2019-03-10T04:55:50.905Z,5.48
2019-03-10T04:56:50.908Z,5.54
2019-03-10T04:57:50.887Z,5.54
2019-03-10T04:58:50.875Z,5.46
2019-03-10T04:59:50.873Z,5.48
2019-03-10T05:00:50.863Z,5.50
2019-03-10T05:01:50.841Z,5.57
2019-03-10T05:02:50.828Z,5.48
2019-03-10T05:03:50.813Z,5.51
2019-03-10T05:04:50.802Z,5.48
2019-03-10T05:05:50.855Z,5.46
2019-03-10T05:06:50.779Z,5.51
2019-03-10T05:07:50.825Z,5.51
2019-03-10T05:08:50.797Z,5.48
2019-03-10T05:09:50.759Z,5.53
2019-03-10T05:10:50.747Z,5.46
2019-03-10T05:11:50.732Z,5.54
2019-03-10T05:12:50.716Z,5.50
2019-03-10T05:13:50.719Z,5.59
2019-03-10T05:14:50.758Z,5.54
2019-03-10T05:15:50.696Z,5.53
2019-03-10T05:16:50.702Z,5.57
2019-03-10T05:17:50.675Z,5.61
2019-03-10T05:18:50.649Z,5.59
2019-03-10T05:19:50.646Z,5.59
2019-03-10T05:20:50.626Z,5.66
2019-03-10T05:21:50.615Z,5.65
2019-03-10T05:22:50.610Z,5.64
2019-03-10T05:23:50.594Z,5.62
2019-03-10T05:24:50.584Z,5.65
2019-03-10T05:25:50.574Z,5.65
2019-03-10T05:26:50.562Z,5.65
2019-03-10T05:27:50.549Z,5.57
2019-03-10T05:28:50.564Z,5.66
2019-03-10T05:29:50.534Z,5.59
2019-03-10T05:30:50.522Z,5.65
2019-03-10T05:31:50.522Z,5.64
2019-03-10T05:32:50.526Z,5.65
2019-03-10T05:33:50.478Z,5.61
2019-03-10T05:34:50.466Z,5.65
2019-03-10T05:35:50.476Z,5.62
2019-03-10T05:36:50.452Z,5.62
2019-03-10T05:37:50.552Z,5.61
2019-03-10T05:38:50.422Z,5.62
2019-03-10T05:39:50.416Z,5.53
2019-03-10T05:40:50.400Z,5.57
2019-03-10T05:41:50.403Z,5.62
2019-03-10T05:42:50.401Z,5.62
2019-03-10T05:43:50.370Z,5.62
2019-03-10T05:44:50.359Z,5.59
2019-03-10T05:45:50.371Z,5.51
2019-03-10T05:46:50.339Z,5.59
2019-03-10T05:47:50.328Z,5.64
2019-03-10T05:48:50.334Z,5.57
2019-03-10T05:49:50.317Z,5.53
2019-03-10T05:50:50.293Z,5.61
2019-03-10T05:51:50.285Z,5.57
2019-03-10T05:52:50.273Z,5.54
2019-03-10T05:53:50.271Z,5.59
2019-03-10T05:54:50.296Z,5.57
2019-03-10T05:55:50.238Z,5.66
2019-03-10T05:56:50.240Z,5.62
2019-03-10T05:57:50.214Z,5.61
2019-03-10T05:58:50.227Z,5.71
2019-03-10T05:59:50.186Z,5.69
2019-03-10T06:00:50.178Z,5.64
2019-03-10T06:01:50.167Z,5.66
2019-03-10T06:02:50.164Z,5.65
2019-03-10T06:03:50.151Z,5.66
2019-03-10T06:04:50.159Z,5.71
2019-03-10T06:05:50.125Z,5.66
2019-03-10T06:06:50.122Z,5.64
2019-03-10T06:07:50.107Z,5.79
2019-03-10T06:08:50.098Z,5.65
2019-03-10T06:09:50.090Z,5.75
2019-03-10T06:10:50.062Z,5.73
2019-03-10T06:11:50.057Z,5.75
2019-03-10T06:12:50.049Z,5.72
2019-03-10T06:13:50.031Z,5.68
2019-03-10T06:14:50.024Z,5.75
2019-03-10T06:15:50.030Z,5.64
2019-03-10T06:16:49.998Z,5.65
2019-03-10T06:17:49.994Z,5.69
2019-03-10T06:18:49.975Z,5.72
2019-03-10T06:19:49.974Z,5.65
2019-03-10T06:20:49.967Z,5.66
2019-03-10T06:21:49.962Z,5.64
2019-03-10T06:22:49.932Z,5.65
2019-03-10T06:23:49.925Z,5.62
2019-03-10T06:24:49.914Z,5.61
2019-03-10T06:25:49.901Z,5.64
2019-03-10T06:26:49.907Z,5.59
2019-03-10T06:27:49.876Z,5.56
2019-03-10T06:28:50.932Z,5.62
2019-03-10T06:29:49.859Z,5.62
2019-03-10T06:30:49.847Z,5.61
2019-03-10T06:31:49.841Z,5.61
2019-03-10T06:32:49.838Z,5.65
2019-03-10T06:33:49.810Z,5.59
2019-03-10T06:34:49.817Z,5.65
2019-03-10T06:35:49.795Z,5.64
2019-03-10T06:36:49.774Z,5.66
2019-03-10T06:37:49.770Z,5.69
2019-03-10T06:38:49.767Z,5.73
2019-03-10T06:39:49.738Z,5.72
2019-03-10T06:40:49.737Z,5.64
2019-03-10T06:41:49.735Z,5.72
2019-03-10T06:42:49.715Z,5.69
2019-03-10T06:43:49.713Z,5.75
2019-03-10T06:44:49.696Z,5.86
2019-03-10T06:45:49.675Z,5.76
2019-03-10T06:46:49.665Z,5.86
2019-03-10T06:47:49.653Z,5.91
2019-03-10T06:48:49.679Z,5.99
2019-03-10T06:49:49.651Z,5.94
2019-03-10T06:50:49.626Z,6.01
2019-03-10T06:51:49.608Z,6.12
2019-03-10T06:52:49.595Z,6.19
2019-03-10T06:53:49.582Z,6.20
2019-03-10T06:54:49.588Z,6.28
2019-03-10T06:55:49.561Z,6.31
2019-03-10T06:56:49.562Z,6.39
2019-03-10T06:57:49.548Z,6.36
2019-03-10T06:58:49.548Z,6.54
2019-03-10T06:59:50.143Z,6.51
2019-03-10T07:00:49.536Z,6.52
2019-03-10T07:01:49.523Z,6.57
2019-03-10T07:02:49.576Z,6.57
2019-03-10T07:03:49.481Z,6.59
2019-03-10T07:04:49.639Z,6.63
2019-03-10T07:05:49.488Z,6.66
2019-03-10T07:06:49.480Z,6.60
2019-03-10T07:07:49.440Z,6.60
2019-03-10T07:08:49.582Z,6.67
2019-03-10T07:09:49.421Z,6.63
2019-03-10T07:10:49.410Z,6.64
2019-03-10T07:11:49.401Z,6.62
2019-03-10T07:12:49.407Z,6.60
2019-03-10T07:13:49.379Z,6.62
2019-03-10T07:14:49.357Z,6.66
2019-03-10T07:15:49.375Z,6.67
2019-03-10T07:16:49.340Z,6.75
2019-03-10T07:17:49.329Z,6.70
2019-03-10T07:18:49.312Z,6.79
2019-03-10T07:19:49.312Z,6.79
2019-03-10T07:20:49.289Z,6.70
2019-03-10T07:21:49.293Z,6.77
2019-03-10T07:22:49.281Z,6.78
2019-03-10T07:23:49.299Z,6.74
2019-03-10T07:24:49.244Z,6.75
2019-03-10T07:25:49.237Z,6.77
2019-03-10T07:26:49.224Z,6.82
2019-03-10T07:27:49.216Z,6.93
2019-03-10T07:28:49.206Z,6.92
2019-03-10T07:29:49.206Z,6.93
2019-03-10T07:30:49.185Z,6.89
2019-03-10T07:31:49.167Z,7.03
2019-03-10T07:32:49.214Z,7.07
2019-03-10T07:33:49.150Z,7.00
2019-03-10T07:34:49.150Z,7.02
2019-03-10T07:35:49.182Z,7.07
2019-03-10T07:36:49.117Z,7.10
2019-03-10T07:37:49.104Z,7.14
2019-03-10T07:38:49.095Z,7.11
2019-03-10T07:39:49.082Z,7.11
2019-03-10T07:40:49.077Z,7.10
2019-03-10T07:41:49.056Z,7.05
2019-03-10T07:42:49.067Z,7.00
2019-03-10T07:43:49.043Z,7.02
2019-03-10T07:44:49.030Z,7.05
2019-03-10T07:45:49.068Z,7.03
2019-03-10T07:46:49.005Z,7.11
2019-03-10T07:47:48.990Z,7.06
2019-03-10T07:48:48.982Z,7.06
2019-03-10T07:49:48.982Z,7.03
2019-03-10T07:50:48.958Z,7.17
2019-03-10T07:51:48.960Z,7.05
2019-03-10T07:52:48.977Z,7.17
2019-03-10T07:53:48.934Z,7.18
2019-03-10T07:54:48.922Z,7.20
2019-03-10T07:55:48.907Z,7.28
2019-03-10T07:56:48.902Z,7.28
2019-03-10T07:57:48.889Z,7.28
2019-03-10T07:58:48.871Z,7.38
2019-03-10T07:59:48.862Z,7.42
2019-03-10T08:00:48.852Z,7.40
2019-03-10T08:01:48.835Z,7.35
2019-03-10T08:02:48.830Z,7.38
2019-03-10T08:03:48.831Z,7.39
2019-03-10T08:04:48.819Z,7.36
2019-03-10T08:05:48.789Z,7.42
2019-03-10T08:06:48.787Z,7.42
2019-03-10T08:07:48.782Z,7.43
2019-03-10T08:08:48.759Z,7.47
2019-03-10T08:09:48.742Z,7.43
2019-03-10T08:10:48.735Z,7.45
2019-03-10T08:11:48.729Z,7.40
2019-03-10T08:12:48.735Z,7.48
2019-03-10T08:13:48.704Z,7.45
2019-03-10T08:14:48.710Z,7.54
2019-03-10T08:15:48.706Z,7.53
2019-03-10T08:16:48.673Z,7.51
2019-03-10T08:17:48.664Z,7.63
2019-03-10T08:18:48.648Z,7.57
2019-03-10T08:19:48.646Z,7.63
2019-03-10T08:20:48.620Z,7.58
2019-03-10T08:21:48.627Z,7.63
2019-03-10T08:22:48.601Z,7.67
2019-03-10T08:23:48.595Z,7.67
2019-03-10T08:24:48.585Z,7.61
2019-03-10T08:25:48.583Z,7.60
2019-03-10T08:26:48.552Z,7.76
2019-03-10T08:27:48.540Z,7.58
2019-03-10T08:28:48.536Z,7.61
2019-03-10T08:29:48.518Z,7.61
2019-03-10T08:30:48.522Z,7.58
2019-03-10T08:31:48.508Z,7.58
2019-03-10T08:32:48.490Z,7.63
2019-03-10T08:33:48.470Z,7.82
2019-03-10T08:34:48.467Z,7.77
2019-03-10T08:35:48.450Z,7.83
2019-03-10T08:36:48.450Z,7.83
2019-03-10T08:37:48.430Z,7.94
2019-03-10T08:38:48.428Z,7.91
2019-03-10T08:39:48.427Z,7.91
2019-03-10T08:40:48.405Z,7.94
2019-03-10T08:41:48.422Z,8.05
2019-03-10T08:42:49.665Z,8.00
2019-03-10T08:43:48.363Z,8.06
2019-03-10T08:44:48.348Z,8.03
2019-03-10T08:45:48.347Z,8.01
2019-03-10T08:46:48.351Z,8.06
2019-03-10T08:47:48.332Z,8.10
2019-03-10T08:48:48.325Z,8.10
2019-03-10T08:49:48.301Z,8.15
2019-03-10T08:50:48.284Z,8.12
2019-03-10T08:51:48.359Z,8.09
2019-03-10T08:52:48.261Z,8.15
2019-03-10T08:53:48.309Z,8.19
2019-03-10T08:54:48.250Z,8.15
2019-03-10T08:55:48.260Z,8.24
2019-03-10T08:56:48.225Z,8.31
2019-03-10T08:57:48.218Z,8.28
2019-03-10T08:58:48.201Z,8.30
2019-03-10T08:59:48.183Z,8.30
2019-03-10T09:00:48.173Z,8.18
2019-03-10T09:01:48.159Z,8.10
2019-03-10T09:02:48.159Z,8.10
2019-03-10T09:03:48.162Z,8.15
2019-03-10T09:04:48.219Z,8.23
2019-03-10T09:05:48.120Z,8.18
2019-03-10T09:06:48.118Z,8.28
2019-03-10T09:07:48.121Z,8.23
2019-03-10T09:08:48.120Z,8.34
2019-03-10T09:09:48.104Z,8.26
2019-03-10T09:10:48.145Z,8.31
2019-03-10T09:11:48.203Z,8.26
2019-03-10T09:12:48.071Z,8.18
2019-03-10T09:13:48.036Z,8.33
2019-03-10T09:14:48.015Z,8.19
2019-03-10T09:15:48.036Z,8.24
2019-03-10T09:16:48.015Z,8.28
2019-03-10T09:17:48.071Z,8.36
2019-03-10T09:18:47.980Z,8.37
2019-03-10T09:19:47.980Z,8.38
2019-03-10T09:20:47.959Z,8.42
2019-03-10T09:21:47.952Z,8.34
2019-03-10T09:22:47.937Z,8.55
2019-03-10T09:23:47.928Z,8.55
2019-03-10T09:24:47.913Z,8.58
2019-03-10T09:25:47.938Z,8.56
2019-03-10T09:26:47.896Z,8.63
2019-03-10T09:27:47.875Z,8.56
2019-03-10T09:28:47.899Z,8.63
2019-03-10T09:29:47.857Z,8.60
2019-03-10T09:30:47.850Z,8.66
2019-03-10T09:31:47.840Z,8.55
2019-03-10T09:32:47.887Z,8.61
2019-03-10T09:33:47.816Z,8.52
2019-03-10T09:34:47.805Z,8.60
2019-03-10T09:35:47.795Z,8.48
2019-03-10T09:36:47.783Z,8.51
2019-03-10T09:37:47.775Z,8.48
2019-03-10T09:38:47.763Z,8.51
2019-03-10T09:39:47.746Z,8.48
2019-03-10T09:40:47.739Z,8.37
2019-03-10T09:41:47.713Z,8.34
2019-03-10T09:42:47.711Z,8.61
2019-03-10T09:43:47.702Z,8.71
2019-03-10T09:44:47.700Z,8.84
2019-03-10T09:45:47.677Z,8.61
2019-03-10T09:46:47.679Z,8.53
2019-03-10T09:47:47.665Z,8.56
2019-03-10T09:48:47.647Z,8.66
2019-03-10T09:49:47.649Z,8.58
2019-03-10T09:50:47.653Z,8.63
2019-03-10T09:51:47.613Z,8.63
2019-03-10T09:52:47.670Z,8.64
2019-03-10T09:53:47.643Z,8.71
2019-03-10T09:54:47.583Z,8.79
2019-03-10T09:55:47.580Z,8.79
2019-03-10T09:56:47.561Z,8.94
2019-03-10T09:57:47.564Z,8.88
2019-03-10T09:58:47.537Z,8.89
2019-03-10T09:59:47.530Z,8.89
2019-03-10T10:00:47.529Z,9.03
2019-03-10T10:01:47.563Z,8.94
2019-03-10T10:02:47.494Z,9.03
2019-03-10T10:03:47.482Z,9.02
2019-03-10T10:04:47.468Z,9.08
2019-03-10T10:05:47.471Z,9.13
2019-03-10T10:06:47.459Z,9.22
2019-03-10T10:07:47.452Z,9.21
2019-03-10T10:08:47.446Z,9.18
2019-03-10T10:09:47.416Z,9.23
2019-03-10T10:10:47.406Z,9.39
2019-03-10T10:11:47.400Z,9.31
2019-03-10T10:12:47.413Z,9.34
2019-03-10T10:13:47.375Z,9.39
2019-03-10T10:14:48.700Z,9.41
2019-03-10T10:15:47.347Z,9.39
2019-03-10T10:16:47.337Z,9.36
2019-03-10T10:17:47.335Z,9.25
2019-03-10T10:18:47.317Z,9.19
2019-03-10T10:19:47.310Z,9.22
2019-03-10T10:20:47.293Z,9.25
2019-03-10T10:21:47.289Z,9.25
2019-03-10T10:22:47.275Z,9.22
2019-03-10T10:23:47.263Z,9.19
2019-03-10T10:24:47.251Z,9.13
2019-03-10T10:25:47.240Z,9.06
2019-03-10T10:26:47.222Z,9.14
2019-03-10T10:27:47.217Z,9.10
2019-03-10T10:28:47.216Z,9.13
2019-03-10T10:29:47.247Z,9.13
2019-03-10T10:30:47.328Z,9.11
2019-03-10T10:31:47.287Z,9.03
2019-03-10T10:32:47.236Z,9.13
2019-03-10T10:33:47.149Z,9.00
2019-03-10T10:34:47.140Z,9.06
2019-03-10T10:35:47.155Z,8.92
2019-03-10T10:36:47.117Z,8.95
2019-03-10T10:37:47.109Z,8.99
2019-03-10T10:38:47.092Z,8.94
2019-03-10T10:39:47.084Z,8.88
2019-03-10T10:40:47.078Z,8.89
2019-03-10T10:41:47.072Z,9.00
2019-03-10T10:42:47.053Z,9.03
2019-03-10T10:43:47.060Z,8.99
2019-03-10T10:44:47.046Z,9.04
2019-03-10T10:45:47.016Z,8.92
2019-03-10T10:46:47.002Z,8.95
2019-03-10T10:47:46.989Z,8.91
2019-03-10T10:48:46.990Z,8.88
2019-03-10T10:49:46.973Z,8.89
2019-03-10T10:50:46.972Z,8.79
2019-03-10T10:51:46.954Z,8.79
2019-03-10T10:52:46.929Z,8.74
2019-03-10T10:53:46.928Z,8.82
2019-03-10T10:54:46.943Z,8.85
2019-03-10T10:55:46.914Z,8.81
2019-03-10T10:56:46.889Z,8.79
2019-03-10T10:57:46.921Z,8.88
2019-03-10T10:58:46.882Z,8.87
2019-03-10T10:59:46.865Z,8.82
2019-03-10T11:00:46.851Z,8.87
2019-03-10T11:01:46.835Z,8.91
2019-03-10T11:02:46.839Z,8.87
2019-03-10T11:03:46.818Z,8.76
2019-03-10T11:04:46.817Z,8.87
2019-03-10T11:05:46.847Z,8.78
2019-03-10T11:06:46.795Z,8.82
2019-03-10T11:07:46.774Z,8.84
2019-03-10T11:08:46.770Z,8.87
2019-03-10T11:09:46.743Z,8.70
2019-03-10T11:10:46.738Z,8.74
2019-03-10T11:11:46.749Z,8.73
2019-03-10T11:12:46.720Z,8.69
2019-03-10T11:13:46.718Z,8.74
2019-03-10T11:14:46.716Z,8.78
2019-03-10T11:15:46.680Z,8.78
2019-03-10T11:16:46.671Z,8.73
2019-03-10T11:17:46.663Z,8.70
2019-03-10T11:18:46.663Z,8.69
2019-03-10T11:19:46.645Z,8.61
2019-03-10T11:20:46.620Z,8.63
2019-03-10T11:21:53.776Z,8.66
2019-03-10T11:23:28.791Z,8.63
2019-03-10T11:24:28.752Z,8.63
2019-03-10T11:25:28.754Z,8.49
2019-03-10T11:26:28.722Z,8.38
2019-03-10T11:27:28.708Z,8.36
2019-03-10T11:28:28.762Z,8.26
2019-03-10T11:29:28.691Z,8.15
2019-03-10T11:30:28.682Z,8.19
2019-03-10T11:31:28.686Z,8.19
2019-03-10T11:32:28.657Z,8.20
2019-03-10T11:33:28.649Z,8.16
2019-03-10T11:34:28.642Z,8.15
2019-03-10T11:35:28.627Z,8.15
2019-03-10T11:36:28.613Z,8.03
2019-03-10T11:37:28.609Z,8.13
2019-03-10T11:38:28.596Z,8.12
2019-03-10T11:39:28.583Z,8.15
2019-03-10T11:40:28.578Z,8.09
2019-03-10T11:41:33.736Z,8.13
2019-03-10T11:42:29.549Z,8.08
2019-03-10T11:43:28.547Z,8.03
2019-03-10T11:44:28.525Z,8.08
2019-03-10T11:45:28.520Z,8.10
2019-03-10T11:46:28.502Z,8.05
2019-03-10T11:47:28.490Z,8.06
2019-03-10T11:48:28.481Z,8.06
2019-03-10T11:49:28.467Z,8.16
2019-03-10T11:50:28.455Z,8.18
2019-03-10T11:51:28.453Z,8.19
2019-03-10T11:52:28.443Z,8.05
2019-03-10T11:53:28.432Z,8.00
2019-03-10T11:54:28.415Z,8.13
2019-03-10T11:55:28.405Z,8.18
2019-03-10T11:56:28.393Z,8.18
2019-03-10T11:57:28.418Z,8.16
2019-03-10T11:58:29.998Z,8.16
2019-03-10T11:59:28.364Z,8.19
2019-03-10T12:00:28.407Z,8.16
2019-03-10T12:01:28.336Z,8.18
2019-03-10T12:02:28.325Z,8.13
2019-03-10T12:03:28.325Z,8.18
2019-03-10T12:04:28.310Z,8.15
2019-03-10T12:05:28.294Z,8.15
2019-03-10T12:06:28.280Z,8.18
2019-03-10T12:07:28.273Z,8.16
2019-03-10T12:08:28.274Z,8.13
2019-03-10T12:09:28.256Z,8.19
2019-03-10T12:10:28.247Z,8.06
2019-03-10T12:11:28.240Z,8.16
2019-03-10T12:12:28.223Z,8.18
2019-03-10T12:13:28.210Z,8.24
2019-03-10T12:14:28.206Z,8.09
2019-03-10T12:15:28.193Z,8.18
2019-03-10T12:16:28.177Z,8.16
2019-03-10T12:17:28.162Z,8.30
2019-03-10T12:18:28.149Z,8.36
2019-03-10T12:19:28.141Z,8.30
2019-03-10T12:20:28.135Z,8.41
2019-03-10T12:21:28.127Z,8.34
2019-03-10T12:22:28.116Z,8.45
2019-03-10T12:23:28.110Z,8.41
2019-03-10T12:24:28.086Z,8.41
2019-03-10T12:25:28.078Z,8.42
2019-03-10T12:26:28.098Z,8.42
2019-03-10T12:27:28.054Z,8.37
2019-03-10T12:28:28.038Z,8.41
2019-03-10T12:29:28.028Z,8.38
2019-03-10T12:30:28.025Z,8.30
2019-03-10T12:31:28.016Z,8.26
2019-03-10T12:32:27.995Z,8.15
2019-03-10T12:33:27.994Z,8.16
2019-03-10T12:34:27.987Z,8.19
2019-03-10T12:35:34.425Z,8.19
2019-03-10T12:36:28.972Z,8.16
2019-03-10T12:37:27.944Z,8.18
2019-03-10T12:38:27.926Z,8.19
2019-03-10T12:39:27.923Z,8.15
2019-03-10T12:40:27.901Z,8.16
2019-03-10T12:41:27.891Z,8.15
2019-03-10T12:42:27.889Z,8.28
2019-03-10T12:43:27.882Z,8.24
2019-03-10T12:44:30.447Z,8.18
2019-03-10T12:45:27.865Z,8.27
2019-03-10T12:46:27.843Z,8.27
2019-03-10T12:47:27.833Z,8.31
2019-03-10T12:48:27.821Z,8.34
2019-03-10T12:49:27.809Z,8.28
2019-03-10T12:50:27.800Z,8.33
2019-03-10T12:51:27.804Z,8.37
2019-03-10T12:52:27.780Z,8.31
2019-03-10T12:53:27.761Z,8.33
2019-03-10T12:54:27.753Z,8.31
2019-03-10T12:55:27.746Z,8.33
2019-03-10T12:56:27.732Z,8.36
2019-03-10T12:57:27.730Z,8.41
2019-03-10T12:58:27.714Z,8.34
2019-03-10T12:59:27.703Z,8.36
2019-03-10T13:00:27.707Z,8.16
2019-03-10T13:01:27.678Z,8.16
2019-03-10T13:02:27.668Z,8.03
2019-03-10T13:03:27.722Z,8.08
2019-03-10T13:04:27.672Z,8.05
2019-03-10T13:05:28.386Z,8.10
2019-03-10T13:06:27.624Z,8.13
2019-03-10T13:07:27.618Z,8.19
2019-03-10T13:08:27.603Z,8.16
2019-03-10T13:09:27.590Z,8.03
2019-03-10T13:10:27.573Z,8.05
2019-03-10T13:11:27.566Z,8.10
2019-03-10T13:12:27.561Z,8.08
2019-03-10T13:13:27.558Z,7.94
2019-03-10T13:14:27.555Z,8.06
2019-03-10T13:15:27.523Z,8.00
2019-03-10T13:16:27.512Z,8.00
2019-03-10T13:17:27.502Z,7.95
2019-03-10T13:18:27.524Z,7.95
2019-03-10T13:19:27.489Z,7.93